Time;durP1;ratioP1;P1;durP2;ratioP2;P2;SDS_P1;SDS_P2;PMS_P1;PMS_P2;Temp;Humidity;BMP_temperature;BMP_pressure;BME280_temperature;BME280_humidity;BME280_pressure;Samples;Min_cycle;Max_cycle;Signal;HPM_P1;HPM_P2
2022/04/26 03:37:49;;;;;;;;;11.20;11.00;;;;;15.45;54.98;99078.09;4954259;28;8855;-80
2022/04/26 03:40:18;;;;;;;;;10.60;10.60;;;;;15.47;55.05;99089.41;4971857;28;8871;-82
2022/04/26 03:42:46;;;;;;;;;11.40;11.00;;;;;15.46;55.22;99087.69;4976672;28;8854;-82
2022/04/26 03:45:16;;;;;;;;;8.20;7.00;;;;;15.48;55.27;99097.25;5010530;28;8840;-81
2022/04/26 03:47:44;;;;;;;;;10.00;10.00;;;;;15.51;55.30;99093.69;4995022;28;8867;-81
2022/04/26 03:50:15;;;;;;;;;12.00;11.00;;;;;15.51;55.34;99097.16;5042782;28;8856;-82
2022/04/26 03:52:44;;;;;;;;;12.00;12.00;;;;;15.54;55.23;99094.47;5044131;28;8882;-83
2022/04/26 03:55:13;;;;;;;;;16.00;16.00;;;;;15.54;55.53;99096.22;5032203;28;8894;-82
2022/04/26 03:57:42;;;;;;;;;53.00;41.75;;;;;15.57;55.52;99099.59;5031069;28;8946;-81
2022/04/26 04:00:12;;;;;;;;;18.80;18.60;;;;;15.58;55.71;99101.34;5065019;28;8957;-78
2022/04/26 04:02:46;;;;;;;;;14.20;13.60;;;;;15.62;55.55;99102.13;4984814;28;8861;-80
2022/04/26 04:05:18;;;;;;;;;13.00;13.00;;;;;15.58;56.02;99106.59;5050109;28;8853;-81
2022/04/26 04:07:46;;;;;;;;;10.80;10.20;;;;;15.60;55.73;99104.78;5031593;28;9029;-79
2022/04/26 04:10:15;;;;;;;;;15.40;14.00;;;;;15.61;55.91;99103.00;5064864;28;8879;-80
2022/04/26 04:12:44;;;;;;;;;47.25;40.25;;;;;15.65;56.10;99114.31;5050723;28;8837;-81
2022/04/26 04:15:16;;;;;;;;;45.00;38.75;;;;;15.61;55.96;99110.91;5031568;28;8853;-81
2022/04/26 04:17:51;;;;;;;;;23.20;22.80;;;;;15.66;56.10;99118.69;5069681;28;8905;-81
2022/04/26 04:20:21;;;;;;;;;15.20;15.20;;;;;15.68;56.13;99116.84;5069819;28;9663;-82
2022/04/26 04:22:53;;;;;;;;;58.25;47.00;;;;;15.72;56.04;99123.75;5084501;28;8857;-81
2022/04/26 04:25:23;;;;;;;;;77.50;63.00;;;;;15.74;55.98;99117.56;5066465;28;8979;-81
2022/04/26 04:27:51;;;;;;;;;26.20;23.80;;;;;15.79;55.84;99120.06;4984283;28;9861;-81
2022/04/26 04:30:20;;;;;;;;;15.20;15.20;;;;;15.85;55.86;99122.53;5011213;28;8906;-82
2022/04/26 04:32:49;;;;;;;;;27.40;25.20;;;;;15.92;55.65;99128.47;5027078;28;8844;-83
2022/04/26 04:35:19;;;;;;;;;44.75;38.25;;;;;16.01;55.66;99129.97;4997295;28;8858;-82
2022/04/26 04:37:49;;;;;;;;;8.40;8.00;;;;;16.07;55.35;99135.06;5006909;28;8866;-83
2022/04/26 04:40:18;;;;;;;;;16.80;16.40;;;;;16.13;55.06;99138.34;5007234;28;8866;-83
2022/04/26 04:42:47;;;;;;;;;17.20;16.20;;;;;15.89;55.48;99137.31;4993954;28;8859;-81
2022/04/26 04:45:16;;;;;;;;;13.80;13.80;;;;;16.02;55.65;99144.84;4993949;28;8844;-84
2022/04/26 04:47:46;;;;;;;;;13.80;13.80;;;;;16.07;55.57;99149.06;5025198;28;8825;-81
2022/04/26 04:50:14;;;;;;;;;14.40;13.80;;;;;16.17;55.06;99153.13;5005813;28;8862;-82
2022/04/26 04:52:45;;;;;;;;;17.00;16.00;;;;;16.29;54.89;99151.91;4973658;28;8870;-84
2022/04/26 04:55:14;;;;;;;;;14.00;14.00;;;;;16.29;54.28;99157.16;5006174;28;8866;-81
2022/04/26 04:57:43;;;;;;;;;16.00;15.20;;;;;16.40;54.43;99164.75;4985810;28;8852;-81
2022/04/26 05:00:13;;;;;;;;;16.80;16.20;;;;;16.67;54.23;99167.41;4955120;28;8848;-81
2022/04/26 05:02:42;;;;;;;;;15.40;14.40;;;;;16.84;53.63;99161.66;5004497;28;8948;-81
2022/04/26 05:05:11;;;;;;;;;15.20;13.60;;;;;16.55;53.95;99166.91;5006145;28;8869;-81
2022/04/26 05:07:40;;;;;;;;;14.80;14.00;;;;;16.74;53.02;99171.59;5024374;28;8873;-80
2022/04/26 05:10:10;;;;;;;;;10.80;9.20;;;;;16.64;53.55;99173.66;5075258;28;8842;-81
2022/04/26 05:12:39;;;;;;;;;13.20;12.40;;;;;16.63;53.65;99177.19;5073085;28;8980;-84
2022/04/26 05:15:10;;;;;;;;;15.20;13.60;;;;;16.79;53.75;99171.47;5050154;28;8842;-80
2022/04/26 05:17:38;;;;;;;;;9.40;9.20;;;;;16.93;53.12;99178.00;5049739;28;8850;-81
2022/04/26 05:20:09;;;;;;;;;15.20;15.20;;;;;17.02;53.07;99178.66;5040086;28;8985;-83
2022/04/26 05:25:21;;;;;;;;;15.40;12.20;;;;;17.11;52.49;99181.84;5051027;28;8885;-79
2022/04/26 05:27:50;;;;;;;;;6.20;6.20;;;;;17.27;52.34;99194.50;5039374;28;8887;-82
2022/04/26 05:30:19;;;;;;;;;14.60;14.20;;;;;17.32;52.39;99185.53;5031266;28;8947;-81
2022/04/26 05:32:47;;;;;;;;;13.40;13.40;;;;;17.46;51.79;99200.00;5014827;28;8894;-81
2022/04/26 05:35:16;;;;;;;;;16.60;15.60;;;;;17.61;51.42;99203.88;5030111;28;8852;-81
2022/04/26 05:37:45;;;;;;;;;14.40;14.00;;;;;17.61;50.66;99206.53;5013544;28;8949;-80
2022/04/26 05:40:13;;;;;;;;;12.60;11.60;;;;;17.71;50.87;99207.91;5013809;28;8978;-72
2022/04/26 05:42:43;;;;;;;;;13.00;12.20;;;;;17.54;50.89;99212.03;5028732;28;8852;-73
2022/04/26 05:45:12;;;;;;;;;15.80;15.00;;;;;17.32;52.13;99218.94;5011011;28;8993;-73
2022/04/26 05:47:44;;;;;;;;;14.20;12.60;;;;;17.08;52.43;99218.81;5009722;28;8836;-74
2022/04/26 05:50:13;;;;;;;;;15.80;15.40;;;;;17.24;52.10;99226.19;5028155;28;8876;-74
2022/04/26 05:52:42;;;;;;;;;14.40;14.40;;;;;17.22;52.19;99221.00;5012195;28;8971;-73
2022/04/26 05:55:11;;;;;;;;;16.40;14.40;;;;;17.40;52.36;99219.53;5028459;28;8872;-73
2022/04/26 05:57:42;;;;;;;;;18.60;17.20;;;;;17.58;51.82;99222.44;5011523;28;8864;-75
2022/04/26 06:00:14;;;;;;;;;13.20;13.20;;;;;17.68;52.38;99216.81;5032601;28;9026;-76
2022/04/26 06:02:43;;;;;;;;;12.20;12.20;;;;;17.60;51.95;99218.84;5068006;28;8886;-76
2022/04/26 06:05:19;;;;;;;;;12.60;12.60;;;;;17.70;51.21;99219.38;5068375;28;8875;-74
2022/04/26 06:07:48;;;;;;;;;16.00;15.40;;;;;17.71;51.55;99215.81;5058017;28;8876;-73
2022/04/26 06:10:16;;;;;;;;;12.00;12.00;;;;;17.84;51.63;99214.50;5050538;28;8886;-72
2022/04/26 06:12:45;;;;;;;;;13.60;13.60;;;;;18.10;51.02;99220.63;5050778;28;8849;-74
2022/04/26 06:15:17;;;;;;;;;13.40;13.20;;;;;17.89;50.76;99219.63;5064750;28;8847;-79
2022/04/26 06:17:46;;;;;;;;;12.00;10.40;;;;;18.10;50.53;99224.13;5069799;28;9604;-78
2022/04/26 06:20:14;;;;;;;;;12.20;12.20;;;;;18.06;50.23;99221.66;5101987;28;9692;-79
2022/04/26 06:22:43;;;;;;;;;6.40;6.40;;;;;18.18;50.55;99217.72;5069982;28;8861;-78
2022/04/26 06:25:12;;;;;;;;;15.80;14.60;;;;;18.17;49.99;99224.78;5103464;28;8855;-81
2022/04/26 06:27:40;;;;;;;;;11.40;11.40;;;;;17.52;51.99;99224.41;5086636;28;10245;-76
2022/04/26 06:30:09;;;;;;;;;13.00;12.00;;;;;17.97;51.27;99222.84;5071380;28;8870;-78
2022/04/26 06:32:42;;;;;;;;;12.20;12.20;;;;;17.65;51.72;99224.81;5070882;28;9619;-78
2022/04/26 06:35:11;;;;;;;;;10.40;10.40;;;;;17.30;52.81;99232.16;5086378;28;8842;-78
2022/04/26 06:37:39;;;;;;;;;13.40;12.60;;;;;17.56;52.06;99232.19;5070147;28;8974;-77
2022/04/26 06:40:08;;;;;;;;;10.60;10.60;;;;;16.53;54.62;99231.03;5087364;28;8880;-80
2022/04/26 06:42:37;;;;;;;;;12.80;11.00;;;;;15.91;56.77;99235.41;5052318;28;8862;-76
2022/04/26 06:45:06;;;;;;;;;9.40;9.20;;;;;15.74;58.13;99229.75;5086532;28;8846;-79
2022/04/26 06:47:35;;;;;;;;;12.40;12.20;;;;;15.53;58.64;99242.53;5086088;28;8915;-77
2022/04/26 06:50:08;;;;;;;;;13.00;13.00;;;;;15.91;57.88;99229.31;5052685;28;8866;-77
2022/04/26 06:52:36;;;;;;;;;9.20;9.00;;;;;15.60;58.63;99246.72;5051586;28;9592;-78
2022/04/26 06:55:06;;;;;;;;;14.20;13.20;;;;;15.75;58.69;99234.97;5026639;28;8976;-77
2022/04/26 06:57:36;;;;;;;;;17.80;14.00;;;;;15.89;58.58;99236.38;5049003;28;8938;-76
2022/04/26 07:00:07;;;;;;;;;14.40;14.40;;;;;16.07;57.77;99230.59;5051665;28;8881;-77
2022/04/26 07:02:36;;;;;;;;;11.80;11.80;;;;;16.19;57.38;99239.91;5048995;28;8852;-77
2022/04/26 07:05:08;;;;;;;;;12.40;12.20;;;;;16.51;56.24;99241.59;5049063;28;9625;-78
2022/04/26 07:07:37;;;;;;;;;14.80;14.80;;;;;16.24;57.01;99237.13;5064238;28;8852;-77
2022/04/26 07:10:06;;;;;;;;;12.60;10.80;;;;;16.69;56.18;99234.94;5048645;28;8971;-77
2022/04/26 07:12:36;;;;;;;;;12.00;12.00;;;;;16.67;56.17;99236.75;5031696;28;9042;-76
2022/04/26 07:15:05;;;;;;;;;9.20;9.20;;;;;17.09;55.30;99236.34;5050143;28;8873;-78
2022/04/26 07:17:34;;;;;;;;;11.40;11.00;;;;;16.86;55.54;99239.72;5050217;28;8955;-77
2022/04/26 07:20:03;;;;;;;;;10.80;10.80;;;;;17.39;53.76;99238.00;5050020;28;8857;-77
2022/04/26 07:22:34;;;;;;;;;9.80;9.40;;;;;17.70;53.17;99248.41;5061679;28;8876;-76
2022/04/26 07:25:02;;;;;;;;;11.80;11.00;;;;;18.00;51.86;99250.91;5083076;28;8923;-76
2022/04/26 07:27:31;;;;;;;;;10.00;8.00;;;;;17.32;52.74;99245.28;5087012;28;8944;-78
2022/04/26 07:30:00;;;;;;;;;11.80;11.80;;;;;16.97;53.55;99256.94;5075535;28;8919;-76
2022/04/26 07:35:12;;;;;;;;;10.40;10.40;;;;;17.29;52.24;99256.78;5070268;28;8884;-77
2022/04/26 07:37:43;;;;;;;;;12.20;11.80;;;;;17.11;53.70;99258.25;5049418;28;8881;-75
2022/04/26 07:40:12;;;;;;;;;10.20;9.40;;;;;17.09;53.04;99260.06;5049635;28;8887;-76
2022/04/26 07:42:40;;;;;;;;;11.40;11.40;;;;;17.08;54.04;99260.97;5050061;28;8867;-76
2022/04/26 07:45:12;;;;;;;;;12.00;11.00;;;;;17.30;53.63;99257.66;5048408;28;8841;-76
2022/04/26 07:47:41;;;;;;;;;9.20;9.20;;;;;17.38;52.90;99260.03;5047832;28;8968;-75
2022/04/26 07:50:10;;;;;;;;;15.80;14.60;;;;;17.10;53.55;99269.69;5046553;28;8861;-78
2022/04/26 07:52:46;;;;;;;;;11.20;11.00;;;;;17.09;54.14;99269.75;5048094;28;8860;-76
2022/04/26 07:55:15;;;;;;;;;17.60;16.20;;;;;17.31;54.19;99273.38;5046852;28;8961;-76
2022/04/26 07:57:43;;;;;;;;;13.00;13.00;;;;;17.36;53.70;99275.91;4962372;28;8902;-76
2022/04/26 08:00:14;;;;;;;;;14.40;13.80;;;;;17.30;53.62;99271.69;5027737;28;8852;-77
2022/04/26 08:02:43;;;;;;;;;14.40;13.20;;;;;17.69;53.38;99278.31;5028440;28;8983;-76
2022/04/26 08:05:14;;;;;;;;;16.60;14.00;;;;;17.95;52.76;99274.81;4994760;28;8840;-75
2022/04/26 08:07:42;;;;;;;;;20.40;20.40;;;;;17.57;53.11;99281.38;5026908;28;8890;-76
2022/04/26 08:10:13;;;;;;;;;20.20;18.00;;;;;17.46;54.22;99282.56;5044524;28;8938;-77
2022/04/26 08:12:43;;;;;;;;;18.20;18.00;;;;;17.93;53.50;99279.28;5043366;28;8844;-77
2022/04/26 08:15:13;;;;;;;;;15.80;15.80;;;;;18.16;52.69;99275.81;5026024;28;9574;-76
2022/04/26 08:17:42;;;;;;;;;16.00;14.20;;;;;18.69;51.75;99285.31;5025994;28;8852;-75
2022/04/26 08:20:11;;;;;;;;;17.60;17.40;;;;;19.08;50.89;99279.44;5042552;28;8926;-75
2022/04/26 08:22:40;;;;;;;;;20.00;19.20;;;;;18.78;48.97;99284.97;4959010;28;8985;-78
2022/04/26 08:27:56;;;;;;;;;18.20;18.00;;;;;18.89;49.88;99274.88;5040811;28;8878;-78
2022/04/26 08:30:24;;;;;;;;;23.60;21.80;;;;;19.03;50.00;99282.25;5025522;28;8846;-78
2022/04/26 08:32:53;;;;;;;;;20.60;19.00;;;;;18.97;49.87;99285.16;5008982;28;9674;-77
2022/04/26 08:35:25;;;;;;;;;15.60;15.60;;;;;19.24;48.65;99280.56;4990299;28;8981;-76
2022/04/26 08:38:13;;;;;;;;;18.00;17.00;;;;;19.60;48.22;99272.03;5009710;28;8870;-78
2022/04/26 08:40:43;;;;;;;;;19.20;18.20;;;;;19.79;47.37;99271.25;5025024;28;8882;-75
2022/04/26 08:43:13;;;;;;;;;23.20;20.20;;;;;20.04;47.01;99276.38;4975802;28;8988;-78
2022/04/26 08:45:43;;;;;;;;;17.80;17.20;;;;;19.51;47.19;99283.00;4973417;28;8847;-77
2022/04/26 08:51:03;;;;;;;;;20.00;19.40;;;;;20.14;46.39;99275.03;5047698;28;8854;-79
2022/04/26 08:53:34;;;;;;;;;24.00;23.20;;;;;19.58;46.85;99281.78;5030019;28;8874;-76
2022/04/26 08:56:06;;;;;;;;;23.80;23.40;;;;;19.03;48.38;99281.41;5044106;28;8974;-77
2022/04/26 08:58:37;;;;;;;;;22.80;22.20;;;;;19.40;47.91;99279.94;5049613;28;8848;-76
2022/04/26 09:01:09;;;;;;;;;22.80;22.80;;;;;19.81;47.56;99278.22;5066259;28;8872;-77
2022/04/26 09:03:39;;;;;;;;;23.00;22.00;;;;;20.13;46.02;99275.97;5045640;28;8992;-76
2022/04/26 09:06:11;;;;;;;;;23.60;23.00;;;;;19.97;46.02;99273.13;5012887;28;8849;-77
2022/04/26 09:08:40;;;;;;;;;20.00;18.80;;;;;20.29;46.46;99270.84;4996292;28;8845;-77
2022/04/26 09:11:24;;;;;;;;;24.00;23.00;;;;;19.72;46.65;99278.63;4996578;28;8853;-79
2022/04/26 09:13:55;;;;;;;;;22.20;19.60;;;;;20.30;46.06;99274.34;4963938;28;9075;-80
2022/04/26 09:16:24;;;;;;;;;18.60;18.60;;;;;20.32;45.40;99275.13;5045650;28;8829;-77
2022/04/26 09:18:56;;;;;;;;;15.00;15.00;;;;;20.72;44.23;99274.22;4968455;28;8955;-79
2022/04/26 09:21:26;;;;;;;;;15.80;15.80;;;;;21.07;44.27;99268.16;5005612;28;8858;-75
2022/04/26 09:24:00;;;;;;;;;15.00;15.00;;;;;21.21;44.02;99269.22;4980198;28;8865;-76
2022/04/26 09:26:36;;;;;;;;;19.00;19.00;;;;;21.34;44.02;99272.16;4986707;28;8859;-75
2022/04/26 09:29:08;;;;;;;;;17.40;17.40;;;;;21.59;42.28;99269.16;4970657;28;8842;-78
2022/04/26 09:31:39;;;;;;;;;8.40;8.40;;;;;21.84;41.49;99262.59;4986592;28;8863;-76
2022/04/26 09:34:12;;;;;;;;;14.40;14.40;;;;;21.85;41.47;99258.13;4974624;28;8957;-78
2022/04/26 09:36:45;;;;;;;;;13.60;13.40;;;;;21.64;41.40;99268.91;5006376;28;8842;-76
2022/04/26 09:39:18;;;;;;;;;15.40;15.40;;;;;21.73;41.59;99272.91;4989343;28;8839;-76
2022/04/26 09:42:07;;;;;;;;;16.40;16.20;;;;;21.96;42.00;99266.41;5005677;28;9564;-75
2022/04/26 09:44:40;;;;;;;;;13.80;13.60;;;;;21.91;40.88;99263.13;4988925;28;8858;-78
2022/04/26 09:47:09;;;;;;;;;10.20;10.20;;;;;22.10;40.97;99269.22;5005455;28;8842;-77
2022/04/26 09:49:39;;;;;;;;;14.60;14.60;;;;;22.19;40.08;99268.72;5005126;28;8950;-78
2022/04/26 09:52:13;;;;;;;;;10.40;10.40;;;;;21.32;39.22;99259.88;5005602;28;9027;-76
2022/04/26 09:54:42;;;;;;;;;10.80;10.40;;;;;21.57;40.40;99264.88;5007430;28;8870;-76
2022/04/26 09:57:16;;;;;;;;;6.60;6.40;;;;;21.80;39.41;99267.19;5041687;28;8849;-79
2022/04/26 10:00:09;;;;;;;;;5.00;4.20;;;;;22.00;37.29;99262.63;5066930;28;8862;-76
2022/04/26 10:02:42;;;;;;;;;6.40;5.60;;;;;22.10;37.92;99263.03;5051814;28;8861;-81
2022/04/26 10:05:15;;;;;;;;;6.80;5.20;;;;;22.28;37.13;99259.44;5052216;28;8868;-79
2022/04/26 10:07:46;;;;;;;;;6.20;5.80;;;;;22.34;37.08;99245.84;5052581;28;8879;-77
2022/04/26 10:10:15;;;;;;;;;8.80;8.40;;;;;20.99;39.09;99258.78;5052097;28;8946;-76
2022/04/26 10:13:31;;;;;;;;;10.20;9.40;;;;;20.41;41.71;99250.88;5050681;28;8849;-80
2022/04/26 10:15:37;;;;;;;;;8.60;8.00;;;;;21.02;40.69;99260.47;5061170;28;9541;-77
2022/04/26 10:18:29;;;;;;;;;11.00;11.00;;;;;20.80;40.48;99260.59;5070874;28;9653;-76
2022/04/26 10:20:58;;;;;;;;;13.20;9.20;;;;;20.40;39.90;99250.03;5053528;28;8866;-78
2022/04/26 10:23:28;;;;;;;;;8.00;8.00;;;;;20.28;40.20;99249.72;5087494;28;8870;-77
2022/04/26 10:26:25;;;;;;;;;11.00;10.60;;;;;20.33;39.93;99242.44;5053970;28;8854;-79
2022/04/26 10:28:57;;;;;;;;;9.80;9.80;;;;;20.40;40.86;99249.19;5052964;28;8846;-76
2022/04/26 10:31:37;;;;;;;;;11.80;10.40;;;;;20.08;41.78;99246.19;5070138;28;8858;-78
2022/04/26 10:34:26;;;;;;;;;12.00;12.00;;;;;20.05;42.73;99241.88;5053440;28;8818;-76
2022/04/26 10:36:55;;;;;;;;;13.60;12.60;;;;;20.38;42.12;99237.81;5071672;28;8894;-78
2022/04/26 10:39:45;;;;;;;;;11.40;11.20;;;;;20.01;42.09;99242.94;5053945;28;8842;-76
2022/04/26 10:42:27;;;;;;;;;12.40;12.40;;;;;20.51;41.44;99238.06;5071673;28;8905;-78
2022/04/26 10:45:07;;;;;;;;;9.00;9.00;;;;;21.06;41.38;99234.63;5071363;28;8880;-78
2022/04/26 10:47:40;;;;;;;;;8.40;7.20;;;;;21.45;39.44;99231.81;5069395;28;8888;-76
2022/04/26 10:50:12;;;;;;;;;8.00;7.60;;;;;21.98;39.34;99222.03;5070416;28;8871;-80
2022/04/26 10:52:47;;;;;;;;;7.80;7.80;;;;;22.47;38.64;99224.75;5035119;28;8892;-77
2022/04/26 10:55:18;;;;;;;;;8.80;7.20;;;;;22.82;36.68;99219.28;5070405;28;8846;-77
2022/04/26 10:57:52;;;;;;;;;5.60;5.60;;;;;23.20;36.37;99210.09;5069129;28;8846;-78
2022/04/26 11:00:28;;;;;;;;;7.00;6.20;;;;;23.50;34.59;99223.41;5070592;28;8842;-78
2022/04/26 11:03:03;;;;;;;;;11.00;10.40;;;;;22.57;35.84;99218.00;5056835;28;8887;-77
2022/04/26 11:05:35;;;;;;;;;5.20;4.40;;;;;21.92;35.50;99225.88;5050628;28;8920;-78
2022/04/26 11:08:09;;;;;;;;;9.00;9.00;;;;;21.62;37.03;99220.34;5048434;28;9077;-77
2022/04/26 11:13:35;;;;;;;;;7.00;7.00;;;;;22.35;36.37;99217.47;5049187;28;8853;-79
2022/04/26 11:16:13;;;;;;;;;8.80;8.80;;;;;21.79;37.58;99222.16;5050466;28;8861;-77
2022/04/26 11:18:44;;;;;;;;;7.00;7.00;;;;;21.75;37.86;99216.13;5065566;28;8861;-80
2022/04/26 11:21:14;;;;;;;;;8.80;8.80;;;;;22.03;37.88;99219.16;5079563;28;9580;-77
2022/04/26 11:29:27;;;;;;;;;9.60;8.80;;;;;21.66;37.83;99210.44;5069677;28;8853;-77
2022/04/26 11:31:56;;;;;;;;;8.60;8.40;;;;;21.53;37.78;99208.44;5068762;28;8865;-79
2022/04/26 11:34:49;;;;;;;;;9.80;9.00;;;;;21.12;39.01;99213.97;5085190;28;8831;-79
2022/04/26 11:37:18;;;;;;;;;7.60;7.40;;;;;21.26;38.81;99212.44;5068417;28;9615;-75
2022/04/26 11:39:46;;;;;;;;;7.60;7.40;;;;;21.53;38.22;99204.91;5085609;28;8866;-78
2022/04/26 11:42:16;;;;;;;;;8.80;8.80;;;;;22.14;37.40;99206.16;5068128;28;8861;-78
2022/04/26 11:44:58;;;;;;;;;11.60;11.60;;;;;22.84;37.44;99203.25;5069496;28;8834;-76
2022/04/26 11:47:41;;;;;;;;;9.40;9.40;;;;;23.22;35.69;99203.75;5068065;28;8850;-80
2022/04/26 11:50:14;;;;;;;;;10.20;8.00;;;;;23.75;35.37;99197.03;5049543;28;8880;-79
2022/04/26 11:52:44;;;;;;;;;8.60;8.40;;;;;24.28;33.82;99192.03;5049378;28;8869;-79
2022/04/26 11:55:20;;;;;;;;;6.80;6.80;;;;;24.79;32.50;99194.16;5032756;28;8881;-78
2022/04/26 11:57:49;;;;;;;;;6.00;6.00;;;;;25.33;32.35;99196.00;5050617;28;8864;-80
2022/04/26 12:00:21;;;;;;;;;8.20;7.60;;;;;25.71;31.49;99192.53;5050268;28;8959;-78
2022/04/26 12:02:50;;;;;;;;;6.60;6.20;;;;;25.96;31.19;99191.72;5082496;28;8938;-78
2022/04/26 12:05:23;;;;;;;;;8.20;8.20;;;;;24.50;32.23;99199.53;5082853;28;8844;-79
2022/04/26 12:07:53;;;;;;;;;11.40;9.00;;;;;24.42;32.60;99192.97;5065410;28;8864;-77
2022/04/26 12:10:26;;;;;;;;;8.80;7.00;;;;;23.45;34.03;99202.38;5049909;28;8967;-78
2022/04/26 12:12:56;;;;;;;;;11.20;10.60;;;;;23.42;34.61;99199.03;5049613;28;8910;-75
2022/04/26 12:15:30;;;;;;;;;11.00;9.60;;;;;22.93;34.96;99200.94;5049420;28;8853;-77
2022/04/26 12:18:07;;;;;;;;;12.80;10.00;;;;;22.38;35.91;99196.91;5053660;28;8869;-77
2022/04/26 12:20:39;;;;;;;;;11.80;11.00;;;;;22.49;35.68;99192.78;5054260;28;8860;-77
2022/04/26 12:23:21;;;;;;;;;10.80;10.80;;;;;22.10;36.71;99192.19;5086332;28;8950;-78
2022/04/26 12:25:53;;;;;;;;;14.40;14.20;;;;;22.24;36.56;99188.78;5048253;28;8896;-78
2022/04/26 12:28:22;;;;;;;;;8.40;8.40;;;;;22.57;36.28;99182.56;5049906;28;8829;-76
2022/04/26 12:30:51;;;;;;;;;11.60;9.40;;;;;22.60;35.98;99184.22;5053010;28;8970;-77
2022/04/26 12:33:31;;;;;;;;;12.60;11.20;;;;;22.03;37.32;99182.84;5050725;28;9098;-79
2022/04/26 12:36:04;;;;;;;;;9.00;9.00;;;;;21.76;37.28;99177.19;5047596;28;8848;-78
2022/04/26 12:38:46;;;;;;;;;9.40;9.40;;;;;22.61;36.47;99164.66;5082532;28;8956;-77
2022/04/26 12:41:15;;;;;;;;;8.00;7.00;;;;;23.44;34.30;99166.09;5084273;28;8861;-79
2022/04/26 12:43:45;;;;;;;;;8.00;8.00;;;;;24.45;33.22;99155.47;5016685;28;8942;-80
2022/04/26 12:46:14;;;;;;;;;8.80;8.80;;;;;25.10;32.41;99142.31;5048991;28;8896;-76
2022/04/26 12:51:54;;;;;;;;;9.00;9.00;;;;;25.75;31.20;99150.44;5051881;28;8841;-77
2022/04/26 12:54:23;;;;;;;;;9.00;8.40;;;;;25.70;31.22;99142.72;5064516;28;8995;-78
2022/04/26 12:57:01;;;;;;;;;6.80;6.80;;;;;25.86;30.74;99135.38;5049302;28;8955;-79
2022/04/26 12:59:35;;;;;;;;;7.80;7.60;;;;;25.98;30.51;99139.00;5064645;28;8934;-76
2022/04/26 13:02:06;;;;;;;;;9.80;9.80;;;;;25.99;30.58;99130.03;5049200;28;8845;-77
2022/04/26 13:04:35;;;;;;;;;10.40;9.20;;;;;26.05;30.22;99126.09;5048579;28;8958;-76
2022/04/26 13:07:07;;;;;;;;;7.60;7.40;;;;;26.07;30.93;99121.47;5081334;28;8861;-78
2022/04/26 13:09:36;;;;;;;;;7.00;7.00;;;;;25.97;31.04;99123.94;5064619;28;8868;-78
2022/04/26 13:12:06;;;;;;;;;9.00;9.00;;;;;25.96;31.02;99124.06;5049016;28;8863;-77
2022/04/26 13:14:35;;;;;;;;;8.40;7.80;;;;;25.99;31.12;99124.69;5047810;28;8837;-78
2022/04/26 13:17:20;;;;;;;;;7.00;7.00;;;;;25.95;31.26;99122.34;5064146;28;8855;-75
2022/04/26 13:19:48;;;;;;;;;7.80;7.80;;;;;25.86;31.06;99129.19;5064315;28;8877;-78
2022/04/26 13:22:18;;;;;;;;;9.80;9.00;;;;;25.40;30.48;99119.84;5031133;28;8987;-78
2022/04/26 13:24:47;;;;;;;;;9.80;9.80;;;;;24.77;31.50;99129.41;5049166;28;8999;-78
2022/04/26 13:27:16;;;;;;;;;8.60;8.60;;;;;24.48;32.06;99116.16;5030980;28;8895;-77
2022/04/26 13:29:45;;;;;;;;;10.60;10.60;;;;;24.69;32.44;99113.91;4981183;28;8841;-76
2022/04/26 13:32:14;;;;;;;;;7.20;7.20;;;;;24.82;31.91;99107.75;5051967;28;8868;-76
2022/04/26 13:34:42;;;;;;;;;8.40;8.40;;;;;24.90;31.73;99108.97;5084950;28;8988;-76
2022/04/26 13:37:11;;;;;;;;;8.60;8.60;;;;;24.91;31.85;99104.47;5017734;28;8956;-77
2022/04/26 13:39:44;;;;;;;;;9.40;9.40;;;;;24.92;31.76;99098.19;5052366;28;8863;-76
2022/04/26 13:42:14;;;;;;;;;10.20;9.20;;;;;24.97;31.49;99096.09;5052132;28;9626;-78
2022/04/26 13:44:43;;;;;;;;;8.00;8.00;;;;;25.01;31.58;99096.69;5049052;28;8854;-77
2022/04/26 13:47:11;;;;;;;;;9.00;9.00;;;;;25.01;31.15;99088.69;5016632;28;8944;-80
2022/04/26 13:49:40;;;;;;;;;7.00;7.00;;;;;25.02;31.43;99085.94;5049154;28;8842;-76
2022/04/26 13:52:10;;;;;;;;;11.40;9.40;;;;;25.03;31.14;99086.81;5015814;28;8866;-77
2022/04/26 13:54:38;;;;;;;;;23.25;23.25;;;;;25.08;30.77;99084.66;5032571;28;8882;-77
2022/04/26 13:57:09;;;;;;;;;19.75;19.50;;;;;25.12;31.17;99074.63;5052141;28;8824;-78
2022/04/26 13:59:37;;;;;;;;;11.00;11.00;;;;;25.08;30.53;99079.31;5036021;28;8860;-77
2022/04/26 14:02:07;;;;;;;;;8.20;8.20;;;;;25.10;30.37;99069.41;5068923;28;8998;-77
2022/04/26 14:04:36;;;;;;;;;7.20;7.20;;;;;25.13;31.08;99076.38;5051463;28;9605;-77
2022/04/26 14:07:05;;;;;;;;;7.60;7.60;;;;;25.14;30.90;99065.59;5068674;28;8886;-76
2022/04/26 14:09:34;;;;;;;;;8.60;8.60;;;;;25.21;31.25;99064.19;5067818;28;8868;-76
2022/04/26 14:12:07;;;;;;;;;6.80;6.80;;;;;25.12;31.32;99067.47;5051336;28;8840;-78
2022/04/26 14:22:56;;;;;;;;;37.75;34.00;;;;;24.93;31.25;99061.69;5051058;28;8847;-78
2022/04/26 14:25:25;;;;;;;;;26.50;25.50;;;;;24.85;31.51;99056.88;5082791;28;8837;-77
2022/04/26 14:27:53;;;;;;;;;6.20;6.20;;;;;24.73;31.42;99069.22;5067748;28;8877;-75
2022/04/26 14:30:23;;;;;;;;;10.60;10.60;;;;;24.77;31.49;99057.41;5052377;28;9671;-77
2022/04/26 14:33:10;;;;;;;;;9.00;9.00;;;;;24.60;31.57;99065.69;5066568;28;9070;-78
2022/04/26 14:35:39;;;;;;;;;11.20;10.00;;;;;24.51;31.29;99067.97;5049090;28;8841;-77
2022/04/26 14:38:10;;;;;;;;;9.60;9.60;;;;;24.47;31.64;99066.44;5050532;28;8872;-78
2022/04/26 14:40:39;;;;;;;;;6.00;6.00;;;;;24.33;31.63;99062.03;5050602;28;8943;-77
2022/04/26 14:43:10;;;;;;;;;4.60;4.60;;;;;24.27;32.28;99059.75;5049859;28;8885;-77
2022/04/26 14:45:46;;;;;;;;;9.00;9.00;;;;;24.17;31.98;99061.28;5082818;28;8926;-78
2022/04/26 14:48:16;;;;;;;;;10.40;8.80;;;;;24.29;31.79;99062.31;5082760;28;8841;-77
2022/04/26 14:50:54;;;;;;;;;15.60;15.60;;;;;24.38;31.72;99061.69;5082743;28;8853;-78
2022/04/26 14:53:23;;;;;;;;;13.60;13.00;;;;;24.45;31.77;99055.03;5049335;28;9606;-78
2022/04/26 14:56:09;;;;;;;;;7.00;7.00;;;;;24.44;30.96;99063.13;5033237;28;9602;-75
2022/04/26 14:59:00;;;;;;;;;6.00;6.00;;;;;24.44;31.12;99065.78;5031728;28;8881;-77
2022/04/26 15:01:38;;;;;;;;;7.20;6.40;;;;;24.42;30.96;99059.69;5032336;28;8981;-79
2022/04/26 15:04:07;;;;;;;;;5.80;5.80;;;;;24.45;30.99;99063.03;5032430;28;8870;-79
2022/04/26 15:06:35;;;;;;;;;7.00;7.00;;;;;24.42;31.26;99060.53;5065848;28;9667;-78
2022/04/26 15:16:37;;;;;;;;;5.20;5.20;;;;;24.39;30.68;99054.59;5068516;28;8971;-77
2022/04/26 15:17:28;;;;;;;;;6.80;6.00;;;;;24.30;31.55;99051.53;5067780;28;8874;-78
2022/04/26 15:19:57;;;;;;;;;5.40;5.20;;;;;24.18;31.02;99052.34;5051312;28;8840;-78
2022/04/26 15:22:26;;;;;;;;;8.00;7.00;;;;;24.21;31.53;99045.97;5067522;28;8840;-78
2022/04/26 15:24:55;;;;;;;;;6.00;6.00;;;;;24.15;31.58;99049.03;5067995;28;8848;-78
2022/04/26 15:27:23;;;;;;;;;8.20;6.80;;;;;24.11;31.49;99046.56;5050878;28;8848;-76
2022/04/26 15:29:52;;;;;;;;;8.80;7.20;;;;;24.16;31.57;99045.41;5051450;28;8835;-77
2022/04/26 15:32:23;;;;;;;;;5.60;5.20;;;;;24.20;31.08;99041.59;5068816;28;9690;-79
2022/04/26 15:34:53;;;;;;;;;6.80;6.80;;;;;24.29;31.04;99044.53;5069743;28;8854;-77
2022/04/26 15:37:24;;;;;;;;;7.40;6.60;;;;;24.25;30.98;99042.13;5056582;28;8844;-78
2022/04/26 15:39:54;;;;;;;;;39.00;34.00;;;;;24.24;30.99;99037.78;5067190;28;8950;-77
2022/04/26 15:42:23;;;;;;;;;7.80;7.80;;;;;24.19;31.20;99037.22;5048215;28;8854;-79
2022/04/26 15:44:52;;;;;;;;;6.00;4.00;;;;;24.17;31.67;99039.97;5047988;28;8896;-75
2022/04/26 15:47:21;;;;;;;;;5.00;5.00;;;;;24.12;31.57;99036.75;5032221;28;8850;-77
2022/04/26 15:49:49;;;;;;;;;5.00;5.00;;;;;24.05;31.95;99041.63;5046716;28;8855;-73
2022/04/26 15:52:19;;;;;;;;;6.60;5.80;;;;;23.99;32.61;99036.72;5045589;28;8854;-72
2022/04/26 15:54:48;;;;;;;;;24.00;23.00;;;;;23.96;32.39;99034.22;5044910;28;8916;-73
2022/04/26 15:57:16;;;;;;;;;5.00;5.00;;;;;23.71;32.35;99041.06;5044999;28;9804;-74
2022/04/26 15:59:45;;;;;;;;;5.60;5.60;;;;;23.66;32.57;99035.19;5045001;28;8911;-73
2022/04/26 16:02:14;;;;;;;;;4.00;4.00;;;;;23.66;32.78;99034.31;5043782;28;9650;-73
2022/04/26 16:04:43;;;;;;;;;4.80;4.80;;;;;23.69;32.75;99040.31;5044712;28;9717;-74